LYS weather

Lyon Saint-Exupéry Airport
Lyon, Auvergne-Rhône-Alpes, France

Public forecast

Using degrees Celsius for public forecast. Weather courtesy of forecast.io.

Current aviation weather report (METAR) for Lyon Saint-Exupéry Airport

Retrieved 2019/12/08 23:30 UTC (27 minutes ago):

LFLL 082330Z VRB03KT 9999 BKN040 BKN052 09/07 Q1015 NOSIG

Aviation forecast (TAF) for Lyon Saint-Exupéry Airport

Retrieved 2019/12/08 18:21 UTC (6 hours ago):

TAF LFLL 081700Z 0818/0924 16010KT 9999 FEW020 BKN050 TEMPO 0818/0824 18015G25KT RA PROB30 TEMPO 0904/0909 4000 SHRA SCT040TCU TEMPO 0909/0918 2000 SHRA FEW030CB BKN035TCU PROB40 TEMPO 0909/0914 25020G30KT BECMG 0912/0914 31012KT PROB40 TEMPO 0914/0924 33017G27KT